createdAt,value
2022-08-26T00:03:02.987Z,2.63
2022-08-26T00:05:39.379Z,2.83
2022-08-26T00:08:22.629Z,2.95
2022-08-26T00:11:02.050Z,2.83
2022-08-26T00:17:05.526Z,2.60
2022-08-26T00:20:06.726Z,2.50
2022-08-26T00:23:01.006Z,2.38
2022-08-26T00:26:23.553Z,2.63
2022-08-26T00:29:32.160Z,2.60
2022-08-26T00:38:44.856Z,2.40
2022-08-26T00:41:23.927Z,2.30
2022-08-26T00:49:58.161Z,2.58
2022-08-26T01:29:26.411Z,2.70
2022-08-26T01:32:22.204Z,2.72
2022-08-26T01:35:16.356Z,2.50
2022-08-26T01:39:53.502Z,2.60
2022-08-26T01:41:40.896Z,2.30
2022-08-26T01:44:45.498Z,2.28
2022-08-26T01:47:22.218Z,2.25
2022-08-26T01:50:03.550Z,2.47
2022-08-26T01:52:54.591Z,2.33
2022-08-26T01:56:02.805Z,2.45
2022-08-26T01:59:02.791Z,2.40
2022-08-26T02:04:38.487Z,2.22
2022-08-26T02:07:33.436Z,2.10
2022-08-26T02:10:02.559Z,1.80
2022-08-26T02:12:33.748Z,1.90
2022-08-26T02:15:02.276Z,1.83
2022-08-26T02:17:39.926Z,1.95
2022-08-26T02:20:13.411Z,1.90
2022-08-26T02:22:45.206Z,1.95
2022-08-26T02:25:15.733Z,1.85
2022-08-26T02:30:49.669Z,1.80
2022-08-26T02:33:36.874Z,1.88
2022-08-26T02:36:29.910Z,2.13
2022-08-26T02:39:04.032Z,1.90
2022-08-26T02:41:45.126Z,2.17
2022-08-26T02:47:18.243Z,2.00
2022-08-26T02:49:54.601Z,2.00
2022-08-26T02:55:53.862Z,2.40
2022-08-26T02:58:21.470Z,2.05
2022-08-26T03:00:53.050Z,2.00
2022-08-26T03:20:22.719Z,2.10
2022-08-26T03:30:12.748Z,2.28
2022-08-26T03:32:55.273Z,2.40
2022-08-26T03:35:26.314Z,2.53
2022-08-26T03:47:57.833Z,2.33
2022-08-26T03:50:26.386Z,2.60
2022-08-26T03:52:57.288Z,2.33
2022-08-26T03:55:26.169Z,2.50
2022-08-26T03:57:55.408Z,2.08
2022-08-26T04:00:22.649Z,2.00
2022-08-26T04:02:53.450Z,2.07
2022-08-26T04:05:21.743Z,2.13
2022-08-26T04:08:02.069Z,2.50
2022-08-26T04:10:44.359Z,2.53
2022-08-26T04:16:24.559Z,2.15
2022-08-26T04:19:23.802Z,2.00
2022-08-26T04:21:56.540Z,2.22
2022-08-26T04:24:42.467Z,2.17
2022-08-26T04:30:42.180Z,2.17
2022-08-26T04:33:12.761Z,1.90
2022-08-26T04:35:40.667Z,2.20
2022-08-26T04:45:01.659Z,1.75
2022-08-26T05:02:28.141Z,1.70
2022-08-26T05:34:08.740Z,1.42
2022-08-26T05:36:47.947Z,1.60
2022-08-26T05:39:30.139Z,1.70
2022-08-26T05:42:10.635Z,1.60
2022-08-26T05:44:53.946Z,1.60
2022-08-26T05:47:22.844Z,1.70
2022-08-26T05:49:57.832Z,1.70
2022-08-26T05:52:26.178Z,1.48
2022-08-26T06:01:17.285Z,1.50
2022-08-26T06:04:02.026Z,1.67
2022-08-26T06:07:49.820Z,1.50
2022-08-26T06:12:54.829Z,1.52
2022-08-26T06:15:35.468Z,1.45
2022-08-26T06:24:48.994Z,1.60
2022-08-26T06:27:32.121Z,1.45
2022-08-26T06:30:15.082Z,1.40
2022-08-26T06:32:42.362Z,1.33
2022-08-26T06:38:48.742Z,1.33
2022-08-26T06:41:24.670Z,1.50
2022-08-26T06:43:52.573Z,1.52
2022-08-26T06:46:23.567Z,1.70
2022-08-26T06:48:57.016Z,1.60
2022-08-26T06:51:26.050Z,1.40
2022-08-26T06:53:56.241Z,1.42
2022-08-26T06:56:36.011Z,1.52
2022-08-26T06:59:03.290Z,1.73
2022-08-26T07:01:34.718Z,1.70
2022-08-26T07:04:04.069Z,1.53
2022-08-26T07:06:39.913Z,1.60
2022-08-26T07:09:20.356Z,1.60
2022-08-26T07:11:48.151Z,1.80
2022-08-26T07:14:26.451Z,1.90
2022-08-26T07:17:03.219Z,2.13
2022-08-26T07:19:57.523Z,2.20
2022-08-26T07:28:46.090Z,2.40
2022-08-26T07:32:00.668Z,2.55
2022-08-26T07:34:19.284Z,2.30
2022-08-26T07:36:46.570Z,2.70
2022-08-26T07:39:16.795Z,2.60
2022-08-26T07:41:50.359Z,2.73
2022-08-26T07:44:36.414Z,2.42
2022-08-26T07:53:34.028Z,2.38
2022-08-26T07:59:01.055Z,2.50
2022-08-26T08:01:36.195Z,2.25
2022-08-26T08:04:36.934Z,2.30
2022-08-26T08:07:44.513Z,2.13
2022-08-26T08:16:17.121Z,2.00
2022-08-26T08:18:50.342Z,1.85
2022-08-26T08:21:42.390Z,2.10
2022-08-26T08:24:19.296Z,2.10
2022-08-26T08:41:10.732Z,1.70
2022-08-26T08:44:16.236Z,1.50
2022-08-26T08:46:45.891Z,1.60
2022-08-26T08:49:15.839Z,1.50
2022-08-26T08:51:49.128Z,1.40
2022-08-26T08:54:22.169Z,1.52
2022-08-26T08:57:04.581Z,1.55
2022-08-26T09:00:14.679Z,1.52
2022-08-26T09:03:04.291Z,1.50
2022-08-26T09:05:52.127Z,1.38
2022-08-26T09:08:37.951Z,1.40
2022-08-26T09:11:05.241Z,1.55
2022-08-26T09:13:40.788Z,1.60
2022-08-26T09:16:27.942Z,1.30
2022-08-26T09:22:33.976Z,1.38
2022-08-26T09:25:01.859Z,1.42
2022-08-26T09:27:50.254Z,1.60
2022-08-26T09:30:32.949Z,1.48
2022-08-26T09:33:10.770Z,1.57
2022-08-26T09:35:48.800Z,1.42
2022-08-26T09:38:33.463Z,1.60
2022-08-26T09:41:02.055Z,1.90
2022-08-26T09:43:35.466Z,1.40
2022-08-26T09:46:18.679Z,1.80
2022-08-26T09:48:54.799Z,1.60
2022-08-26T09:51:23.397Z,1.40
2022-08-26T10:08:27.330Z,1.20
2022-08-26T10:14:10.892Z,1.08
2022-08-26T10:17:07.518Z,1.00
2022-08-26T10:19:56.910Z,1.10
2022-08-26T10:22:42.210Z,1.10
2022-08-26T10:41:49.369Z,1.10
2022-08-26T10:44:25.292Z,1.40
2022-08-26T10:56:15.760Z,0.95
2022-08-26T10:58:46.433Z,1.05
2022-08-26T11:01:46.954Z,1.10
2022-08-26T11:04:37.493Z,1.00
2022-08-26T11:07:24.579Z,1.10
2022-08-26T11:13:44.341Z,1.15
2022-08-26T11:19:50.892Z,1.13
2022-08-26T11:26:43.164Z,1.13
2022-08-26T11:29:50.961Z,1.00
2022-08-26T11:32:26.976Z,1.20
2022-08-26T11:35:18.664Z,1.05
2022-08-26T11:38:02.149Z,1.17
2022-08-26T11:40:38.473Z,0.95
2022-08-26T11:43:11.701Z,0.95
2022-08-26T11:45:46.552Z,1.00
2022-08-26T11:48:17.083Z,0.95
2022-08-26T11:51:01.927Z,0.73
2022-08-26T11:53:51.493Z,0.90
2022-08-26T11:56:38.082Z,0.90
2022-08-26T11:59:46.979Z,0.80
2022-08-26T12:02:17.949Z,0.90
2022-08-26T12:07:48.976Z,0.80
2022-08-26T12:20:53.960Z,1.20
2022-08-26T12:24:07.386Z,0.90
2022-08-26T12:32:27.791Z,1.15
2022-08-26T12:34:55.816Z,1.17
2022-08-26T12:37:23.099Z,1.20
2022-08-26T12:39:50.603Z,1.10
2022-08-26T12:42:22.141Z,1.20
2022-08-26T12:44:53.489Z,1.50
2022-08-26T12:47:41.917Z,1.50
2022-08-26T12:50:30.674Z,1.65
2022-08-26T12:53:02.982Z,1.92
2022-08-26T12:55:55.732Z,1.65
2022-08-26T13:02:03.576Z,1.80
2022-08-26T13:05:00.718Z,1.45
2022-08-26T13:07:31.972Z,1.70
2022-08-26T13:20:04.821Z,1.60
2022-08-26T13:22:58.827Z,1.77
2022-08-26T13:25:33.044Z,1.60
2022-08-26T13:28:04.424Z,1.80
2022-08-26T13:30:54.066Z,1.65
2022-08-26T13:36:31.302Z,1.98
2022-08-26T13:39:23.605Z,2.22
2022-08-26T13:41:51.875Z,1.98
2022-08-26T13:44:19.840Z,1.95
2022-08-26T13:47:02.647Z,1.80
2022-08-26T13:49:32.433Z,1.58
2022-08-26T13:51:59.707Z,1.80
2022-08-26T13:54:33.845Z,1.80
2022-08-26T14:00:34.113Z,1.52
2022-08-26T14:03:01.784Z,1.45
2022-08-26T14:08:14.063Z,1.65
2022-08-26T14:10:56.710Z,1.45
2022-08-26T14:17:04.905Z,1.50
2022-08-26T14:19:50.381Z,1.40
2022-08-26T14:19:53.784Z,1.67
2022-08-26T14:22:24.016Z,2.00
2022-08-26T14:24:51.539Z,1.63
2022-08-26T14:30:35.628Z,1.63
2022-08-26T14:36:27.055Z,1.75
2022-08-26T14:38:54.724Z,1.92
2022-08-26T14:41:32.693Z,1.73
2022-08-26T14:44:02.109Z,1.80
2022-08-26T14:46:30.386Z,1.70
2022-08-26T14:49:01.036Z,2.00
2022-08-26T14:51:30.914Z,1.83
2022-08-26T14:54:19.484Z,1.60
2022-08-26T14:56:54.144Z,1.75
2022-08-26T14:59:23.892Z,1.80
2022-08-26T15:01:51.500Z,1.80
2022-08-26T15:04:31.057Z,1.77
2022-08-26T15:10:11.915Z,1.60
2022-08-26T15:12:52.100Z,1.55
2022-08-26T15:15:19.328Z,1.70
2022-08-26T15:17:46.525Z,1.50
2022-08-26T15:21:19.032Z,1.63
2022-08-26T15:24:12.750Z,1.60
2022-08-26T15:26:53.422Z,1.60
2022-08-26T15:29:20.944Z,1.85
2022-08-26T15:31:48.645Z,1.50
2022-08-26T15:34:21.680Z,1.45
2022-08-26T15:36:48.945Z,1.57
2022-08-26T15:39:17.070Z,1.77
2022-08-26T15:41:44.344Z,1.60
2022-08-26T15:44:11.977Z,1.38
2022-08-26T15:46:39.419Z,1.20
2022-08-26T15:49:07.346Z,1.50
2022-08-26T15:51:46.078Z,1.40
2022-08-26T15:54:18.075Z,1.80
2022-08-26T15:56:45.751Z,1.38
2022-08-26T15:59:16.566Z,1.67
2022-08-26T16:01:46.196Z,1.80
2022-08-26T16:04:16.227Z,1.40
2022-08-26T16:06:51.405Z,1.60
2022-08-26T16:09:30.734Z,1.50
2022-08-26T16:11:58.553Z,1.75
2022-08-26T16:17:27.709Z,1.48
2022-08-26T16:20:33.781Z,1.73
2022-08-26T16:23:07.521Z,1.60
2022-08-26T16:25:43.912Z,1.75
2022-08-26T16:28:15.912Z,1.60
2022-08-26T16:30:53.532Z,1.50
2022-08-26T16:33:29.661Z,1.90
2022-08-26T16:38:55.105Z,1.60
2022-08-26T16:41:22.894Z,1.60
2022-08-26T16:43:56.416Z,1.55
2022-08-26T16:46:25.669Z,1.50
2022-08-26T16:49:11.880Z,1.63
2022-08-26T16:52:06.159Z,1.55
2022-08-26T16:54:48.501Z,1.63
2022-08-26T16:57:21.517Z,1.80
2022-08-26T16:59:57.831Z,1.83
2022-08-26T17:02:25.061Z,2.00
2022-08-26T17:04:55.475Z,1.92
2022-08-26T17:07:22.601Z,1.80
2022-08-26T17:09:49.723Z,1.83
2022-08-26T17:12:30.170Z,1.83
2022-08-26T17:15:03.758Z,1.88
2022-08-26T17:18:16.168Z,1.95
2022-08-26T17:21:27.126Z,1.90
2022-08-26T17:24:26.327Z,1.90
2022-08-26T17:27:18.738Z,1.98
2022-08-26T17:30:14.197Z,2.10
2022-08-26T17:33:25.455Z,2.30
2022-08-26T17:35:52.983Z,1.88
2022-08-26T17:38:20.686Z,2.45
2022-08-26T17:40:54.261Z,2.10
2022-08-26T17:43:23.392Z,1.95
2022-08-26T17:45:51.221Z,1.95
2022-08-26T17:48:26.688Z,1.80
2022-08-26T17:51:22.290Z,1.67
2022-08-26T17:54:02.807Z,1.80
2022-08-26T17:56:34.817Z,1.83
2022-08-26T17:59:23.001Z,1.70
2022-08-26T18:05:19.075Z,1.60
2022-08-26T18:08:15.738Z,1.47
2022-08-26T18:10:44.677Z,1.88
2022-08-26T18:13:11.966Z,1.60
2022-08-26T18:16:00.928Z,1.70
2022-08-26T18:18:42.774Z,1.77
2022-08-26T18:21:30.022Z,1.63
2022-08-26T18:23:57.520Z,1.63
2022-08-26T18:26:41.537Z,1.98
2022-08-26T18:29:08.799Z,1.70
2022-08-26T18:32:00.819Z,2.00
2022-08-26T18:34:37.140Z,1.67
2022-08-26T18:37:19.704Z,1.70
2022-08-26T18:39:46.839Z,1.80
2022-08-26T18:42:13.966Z,1.90
2022-08-26T18:44:41.122Z,1.60
2022-08-26T18:47:12.921Z,1.63
2022-08-26T18:49:48.195Z,1.77
2022-08-26T18:52:18.197Z,2.03
2022-08-26T18:55:00.000Z,1.92
2022-08-26T18:57:27.185Z,1.70
2022-08-26T18:59:54.337Z,1.90
2022-08-26T19:02:21.790Z,1.90
2022-08-26T19:04:49.426Z,2.20
2022-08-26T19:07:20.734Z,1.70
2022-08-26T19:20:09.430Z,1.88
2022-08-26T19:22:51.560Z,1.70
2022-08-26T19:25:19.963Z,1.90
2022-08-26T19:27:47.426Z,1.83
2022-08-26T19:30:23.117Z,1.80
2022-08-26T19:32:50.409Z,1.80
2022-08-26T19:35:38.546Z,2.10
2022-08-26T19:40:55.976Z,2.00
2022-08-26T19:43:24.604Z,1.80
2022-08-26T19:45:52.764Z,2.08
2022-08-26T19:48:26.143Z,1.90
2022-08-26T19:50:53.353Z,1.60
2022-08-26T19:53:43.684Z,1.63
2022-08-26T19:58:57.481Z,1.60
2022-08-26T20:01:27.708Z,1.60
2022-08-26T20:06:35.536Z,1.70
2022-08-26T20:09:24.267Z,1.48
2022-08-26T20:11:51.449Z,1.53
2022-08-26T20:14:27.523Z,1.40
2022-08-26T20:16:56.360Z,1.73
2022-08-26T20:19:45.678Z,2.00
2022-08-26T20:22:25.427Z,1.88
2022-08-26T20:24:52.617Z,2.00
2022-08-26T20:27:22.140Z,2.00
2022-08-26T20:29:49.246Z,2.13
2022-08-26T20:32:35.454Z,2.30
2022-08-26T20:35:51.736Z,1.90
2022-08-26T20:38:21.608Z,1.80
2022-08-26T20:40:50.915Z,1.90
2022-08-26T20:43:21.418Z,2.03
2022-08-26T20:46:03.490Z,2.30
2022-08-26T20:48:41.476Z,2.30
2022-08-26T20:51:08.665Z,2.50
2022-08-26T20:56:11.725Z,2.33
2022-08-26T20:58:40.651Z,2.20
2022-08-26T21:01:18.604Z,2.53
2022-08-26T21:03:57.188Z,2.40
2022-08-26T21:06:24.590Z,2.33
2022-08-26T21:08:51.691Z,2.50
2022-08-26T21:11:44.274Z,2.47
2022-08-26T21:14:19.334Z,2.83
2022-08-26T21:16:55.831Z,2.60
2022-08-26T21:20:01.529Z,2.28
2022-08-26T21:22:57.530Z,2.43
2022-08-26T21:25:30.993Z,2.67
2022-08-26T21:28:04.573Z,2.30
2022-08-26T21:30:31.748Z,2.30
2022-08-26T21:33:09.048Z,2.55
2022-08-26T21:35:53.231Z,2.90
2022-08-26T21:38:25.418Z,2.63
2022-08-26T21:40:59.499Z,2.40
2022-08-26T21:43:33.729Z,2.40
2022-08-26T21:46:22.753Z,2.60
2022-08-26T21:48:51.296Z,2.77
2022-08-26T21:51:38.271Z,2.70
2022-08-26T21:54:10.770Z,3.08
2022-08-26T21:59:39.087Z,2.70
2022-08-26T22:02:11.939Z,2.80
2022-08-26T22:04:51.292Z,3.00
2022-08-26T22:07:25.593Z,2.70
2022-08-26T22:10:05.153Z,2.75
2022-08-26T22:12:32.392Z,2.90
2022-08-26T22:15:04.835Z,2.90
2022-08-26T22:17:31.920Z,2.70
2022-08-26T22:19:59.111Z,2.70
2022-08-26T22:22:44.528Z,2.63
2022-08-26T22:25:16.550Z,2.60
2022-08-26T22:27:43.658Z,2.80
2022-08-26T22:30:11.577Z,2.40
2022-08-26T22:36:43.726Z,2.83
2022-08-26T22:42:03.946Z,2.80
2022-08-26T22:44:48.681Z,2.58
2022-08-26T22:47:15.774Z,2.80
2022-08-26T22:49:55.416Z,2.72
2022-08-26T22:52:31.824Z,2.63
2022-08-26T22:55:14.209Z,2.55
2022-08-26T22:57:44.635Z,2.42
2022-08-26T23:00:14.679Z,2.60
2022-08-26T23:02:46.900Z,2.20
2022-08-26T23:05:23.010Z,2.33
2022-08-26T23:07:50.152Z,2.58
2022-08-26T23:10:20.639Z,2.45
2022-08-26T23:13:04.201Z,2.47
2022-08-26T23:15:40.585Z,2.30
2022-08-26T23:18:07.666Z,2.30
2022-08-26T23:20:37.323Z,2.42
2022-08-26T23:23:30.479Z,2.40
2022-08-26T23:25:58.881Z,2.60
2022-08-26T23:28:26.674Z,2.50
2022-08-26T23:30:54.999Z,2.50
2022-08-26T23:33:22.334Z,2.50
2022-08-26T23:36:09.245Z,2.20
2022-08-26T23:38:52.703Z,2.30
2022-08-26T23:41:20.367Z,2.40
2022-08-26T23:43:47.676Z,2.40
2022-08-26T23:49:26.806Z,2.63
2022-08-26T23:52:13.085Z,2.50
2022-08-26T23:54:41.737Z,2.45
2022-08-26T23:57:09.426Z,2.67
2022-08-26T23:59:37.478Z,2.90
